UAL2533 KDEN-KIND
Flight info
| Callsign | UAL2533 |
|---|---|
| Flight time | 1h 54m |
| Altitude | 39000 |
| Route | EMMYS8 ZIRKL LEFAM USIRE KOLTS2 |
| Aircraft | B739/M-SDE2E3FGHIRWXY/LB1 |
Departure
| Time | 2026-05-04 01:39 |
|---|---|
| Airport | Denver International Airport (KDEN) |
Arrival
| Time | 2026-05-04 03:33 |
|---|---|
| Airport | Indianapolis International Airport (KIND) |
| Time | Latitude | Longitude | Altitude | Speed | Heading |
|---|---|---|---|---|---|
| 2026-05-04 01:20 | 39.85331 | -104.67817 | 5385 ft | 0 kts | 358° |
| 2026-05-04 01:26 | 39.85329 | -104.67817 | 5385 ft | 1 kts | 358° |
| 2026-05-04 01:26 | 39.85315 | -104.67818 | 5384 ft | 3 kts | 32° |
| 2026-05-04 01:26 | 39.85301 | -104.67835 | 5385 ft | 3 kts | 49° |
| 2026-05-04 01:27 | 39.85288 | -104.67851 | 5385 ft | 3 kts | 45° |
| 2026-05-04 01:27 | 39.85278 | -104.67869 | 5385 ft | 3 kts | 91° |
| 2026-05-04 01:27 | 39.85281 | -104.67894 | 5385 ft | 2 kts | 95° |
| 2026-05-04 01:27 | 39.85281 | -104.67902 | 5385 ft | 0 kts | 91° |
| 2026-05-04 01:30 | 39.85281 | -104.67858 | 5385 ft | 11 kts | 91° |
| 2026-05-04 01:30 | 39.85278 | -104.67757 | 5385 ft | 11 kts | 88° |
| 2026-05-04 01:30 | 39.85279 | -104.67658 | 5385 ft | 11 kts | 90° |
| 2026-05-04 01:30 | 39.85280 | -104.67556 | 5385 ft | 11 kts | 91° |
| 2026-05-04 01:31 | 39.85276 | -104.67456 | 5385 ft | 11 kts | 93° |
| 2026-05-04 01:31 | 39.85277 | -104.67359 | 5385 ft | 11 kts | 89° |
| 2026-05-04 01:31 | 39.85277 | -104.67264 | 5385 ft | 10 kts | 94° |
| 2026-05-04 01:31 | 39.85277 | -104.67172 | 5385 ft | 10 kts | 87° |
| 2026-05-04 01:32 | 39.85276 | -104.67081 | 5383 ft | 12 kts | 90° |
| 2026-05-04 01:32 | 39.85273 | -104.66952 | 5385 ft | 15 kts | 89° |
| 2026-05-04 01:32 | 39.85274 | -104.66820 | 5382 ft | 14 kts | 95° |
| 2026-05-04 01:32 | 39.85275 | -104.66695 | 5386 ft | 14 kts | 82° |
| 2026-05-04 01:33 | 39.85276 | -104.66575 | 5386 ft | 13 kts | 81° |
| 2026-05-04 01:33 | 39.85296 | -104.66462 | 5386 ft | 14 kts | 91° |
| 2026-05-04 01:33 | 39.85294 | -104.66281 | 5393 ft | 22 kts | 90° |
| 2026-05-04 01:33 | 39.85367 | -104.66241 | 5398 ft | 16 kts | 359° |
| 2026-05-04 01:34 | 39.85525 | -104.66238 | 5393 ft | 26 kts | 360° |
| 2026-05-04 01:34 | 39.85700 | -104.66236 | 5391 ft | 24 kts | 358° |
| 2026-05-04 01:34 | 39.85864 | -104.66235 | 5389 ft | 23 kts | 0° |
| 2026-05-04 01:34 | 39.86021 | -104.66233 | 5388 ft | 22 kts | 1° |
| 2026-05-04 01:35 | 39.86174 | -104.66230 | 5382 ft | 22 kts | 0° |
| 2026-05-04 01:35 | 39.86322 | -104.66230 | 5380 ft | 21 kts | 1° |
| 2026-05-04 01:35 | 39.86466 | -104.66227 | 5383 ft | 20 kts | 0° |
| 2026-05-04 01:35 | 39.86608 | -104.66226 | 5383 ft | 21 kts | 1° |
| 2026-05-04 01:36 | 39.86755 | -104.66224 | 5375 ft | 22 kts | 0° |
| 2026-05-04 01:36 | 39.86910 | -104.66223 | 5373 ft | 23 kts | 0° |
| 2026-05-04 01:36 | 39.87071 | -104.66222 | 5367 ft | 23 kts | 0° |
| 2026-05-04 01:36 | 39.87230 | -104.66218 | 5364 ft | 23 kts | 359° |
| 2026-05-04 01:37 | 39.87385 | -104.66216 | 5363 ft | 22 kts | 0° |
| 2026-05-04 01:37 | 39.87539 | -104.66214 | 5362 ft | 22 kts | 0° |
| 2026-05-04 01:37 | 39.87684 | -104.66214 | 5360 ft | 18 kts | 0° |
| 2026-05-04 01:37 | 39.87756 | -104.66126 | 5357 ft | 8 kts | 89° |
| 2026-05-04 01:38 | 39.87756 | -104.66117 | 5357 ft | 0 kts | 89° |
| 2026-05-04 01:38 | 39.87756 | -104.66108 | 5357 ft | 3 kts | 90° |
| 2026-05-04 01:38 | 39.87753 | -104.65721 | 5353 ft | 83 kts | 90° |
| 2026-05-04 01:38 | 39.87745 | -104.64661 | 5342 ft | 149 kts | 90° |
| 2026-05-04 01:39 | 39.87725 | -104.63099 | 5490 ft | 187 kts | 87° |
| 2026-05-04 01:39 | 39.87681 | -104.61351 | 5918 ft | 210 kts | 89° |
| 2026-05-04 01:39 | 39.87595 | -104.59461 | 6753 ft | 207 kts | 88° |
| 2026-05-04 01:39 | 39.87586 | -104.57525 | 7384 ft | 221 kts | 88° |
| 2026-05-04 01:40 | 39.87590 | -104.55436 | 7570 ft | 246 kts | 88° |
| 2026-05-04 01:40 | 39.87589 | -104.53092 | 7766 ft | 272 kts | 89° |
| 2026-05-04 01:40 | 39.87576 | -104.50524 | 8127 ft | 292 kts | 90° |
| 2026-05-04 01:40 | 39.87549 | -104.47856 | 8885 ft | 297 kts | 91° |
| 2026-05-04 01:41 | 39.87514 | -104.45152 | 9597 ft | 301 kts | 91° |
| 2026-05-04 01:41 | 39.87477 | -104.42431 | 9939 ft | 301 kts | 91° |
| 2026-05-04 01:41 | 39.87440 | -104.39676 | 10015 ft | 310 kts | 91° |
| 2026-05-04 01:41 | 39.87425 | -104.36786 | 10181 ft | 331 kts | 90° |
| 2026-05-04 01:42 | 39.87419 | -104.33714 | 10624 ft | 345 kts | 90° |
| 2026-05-04 01:42 | 39.87407 | -104.30554 | 11303 ft | 352 kts | 91° |
| 2026-05-04 01:42 | 39.87393 | -104.27364 | 11883 ft | 355 kts | 91° |
| 2026-05-04 01:42 | 39.87381 | -104.25178 | 12342 ft | 358 kts | 91° |
| 2026-05-04 01:43 | 39.87363 | -104.21923 | 13150 ft | 361 kts | 91° |
| 2026-05-04 01:43 | 39.87343 | -104.18640 | 13841 ft | 366 kts | 91° |
| 2026-05-04 01:43 | 39.87324 | -104.15302 | 14492 ft | 372 kts | 91° |
| 2026-05-04 01:43 | 39.87305 | -104.11901 | 15151 ft | 378 kts | 90° |
| 2026-05-04 01:44 | 39.87284 | -104.08465 | 15838 ft | 382 kts | 90° |
| 2026-05-04 01:44 | 39.87262 | -104.04974 | 16468 ft | 388 kts | 90° |
| 2026-05-04 01:44 | 39.87239 | -104.01491 | 17099 ft | 392 kts | 90° |
| 2026-05-04 01:44 | 39.87214 | -103.97912 | 17706 ft | 398 kts | 90° |
| 2026-05-04 01:45 | 39.87187 | -103.94292 | 18308 ft | 403 kts | 89° |
| 2026-05-04 01:45 | 39.87162 | -103.90622 | 18903 ft | 408 kts | 88° |
| 2026-05-04 01:45 | 39.87621 | -103.83208 | 20086 ft | 415 kts | 82° |
| 2026-05-04 01:46 | 39.87943 | -103.79447 | 20651 ft | 421 kts | 82° |
| 2026-05-04 01:46 | 39.88211 | -103.75643 | 21236 ft | 426 kts | 83° |
| 2026-05-04 01:46 | 39.88514 | -103.71800 | 21775 ft | 426 kts | 81° |
| 2026-05-04 01:46 | 39.88912 | -103.67941 | 22232 ft | 435 kts | 79° |
| 2026-05-04 01:47 | 39.89381 | -103.64063 | 22765 ft | 434 kts | 81° |
| 2026-05-04 01:47 | 39.89839 | -103.60131 | 23169 ft | 442 kts | 80° |
| 2026-05-04 01:47 | 39.90320 | -103.56198 | 23804 ft | 441 kts | 78° |
| 2026-05-04 01:47 | 39.90812 | -103.52228 | 24215 ft | 448 kts | 79° |
| 2026-05-04 01:48 | 39.91288 | -103.48199 | 24663 ft | 453 kts | 79° |
| 2026-05-04 01:48 | 39.91749 | -103.44136 | 25196 ft | 455 kts | 80° |
| 2026-05-04 01:48 | 39.92208 | -103.40050 | 25671 ft | 457 kts | 79° |
| 2026-05-04 01:48 | 39.92664 | -103.35929 | 26095 ft | 461 kts | 80° |
| 2026-05-04 01:49 | 39.93126 | -103.31776 | 26536 ft | 464 kts | 79° |
| 2026-05-04 01:49 | 39.93591 | -103.27599 | 26968 ft | 467 kts | 79° |
| 2026-05-04 01:49 | 39.94058 | -103.23399 | 27407 ft | 470 kts | 79° |
| 2026-05-04 01:49 | 39.94527 | -103.19174 | 27810 ft | 473 kts | 79° |
| 2026-05-04 01:50 | 39.94999 | -103.14914 | 28215 ft | 476 kts | 79° |
| 2026-05-04 01:50 | 39.95472 | -103.10632 | 28606 ft | 479 kts | 79° |
| 2026-05-04 01:50 | 39.95947 | -103.06323 | 29005 ft | 482 kts | 79° |
| 2026-05-04 01:50 | 39.96421 | -103.01993 | 29384 ft | 484 kts | 79° |
| 2026-05-04 01:51 | 39.96896 | -102.97634 | 29750 ft | 487 kts | 79° |
| 2026-05-04 01:51 | 39.97372 | -102.93254 | 30079 ft | 489 kts | 79° |
| 2026-05-04 01:51 | 39.97849 | -102.88848 | 30399 ft | 493 kts | 79° |
| 2026-05-04 01:51 | 39.98327 | -102.84419 | 30745 ft | 495 kts | 79° |
| 2026-05-04 01:52 | 39.98807 | -102.79960 | 31068 ft | 498 kts | 79° |
| 2026-05-04 01:52 | 39.99287 | -102.75486 | 31341 ft | 500 kts | 79° |
| 2026-05-04 01:52 | 39.99769 | -102.70987 | 31671 ft | 501 kts | 80° |
| 2026-05-04 01:52 | 40.00250 | -102.66482 | 32078 ft | 500 kts | 79° |
| 2026-05-04 01:53 | 40.00725 | -102.61991 | 32461 ft | 500 kts | 79° |
| 2026-05-04 01:53 | 40.01199 | -102.57492 | 32793 ft | 501 kts | 79° |
| 2026-05-04 01:53 | 40.01671 | -102.52991 | 33146 ft | 500 kts | 80° |
| 2026-05-04 01:53 | 40.02135 | -102.48561 | 33528 ft | 499 kts | 80° |
| 2026-05-04 01:54 | 40.02608 | -102.44023 | 33901 ft | 498 kts | 80° |
| 2026-05-04 01:54 | 40.03068 | -102.39600 | 34197 ft | 499 kts | 80° |
| 2026-05-04 01:54 | 40.03539 | -102.35058 | 34529 ft | 498 kts | 80° |
| 2026-05-04 01:54 | 40.03995 | -102.30642 | 34850 ft | 497 kts | 80° |
| 2026-05-04 01:55 | 40.04462 | -102.26109 | 35145 ft | 498 kts | 80° |
| 2026-05-04 01:55 | 40.04921 | -102.21628 | 35390 ft | 498 kts | 80° |
| 2026-05-04 01:55 | 40.05372 | -102.17205 | 35661 ft | 498 kts | 80° |
| 2026-05-04 01:55 | 40.05827 | -102.12720 | 35927 ft | 498 kts | 80° |
| 2026-05-04 01:56 | 40.06281 | -102.08238 | 36205 ft | 498 kts | 80° |
| 2026-05-04 01:56 | 40.06734 | -102.03748 | 36391 ft | 500 kts | 80° |
| 2026-05-04 01:56 | 40.07186 | -101.99248 | 36582 ft | 501 kts | 80° |
| 2026-05-04 01:56 | 40.07636 | -101.94745 | 36834 ft | 500 kts | 80° |
| 2026-05-04 01:57 | 40.08086 | -101.90245 | 37176 ft | 497 kts | 80° |
| 2026-05-04 01:57 | 40.08528 | -101.85789 | 37566 ft | 493 kts | 80° |
| 2026-05-04 01:57 | 40.08970 | -101.81301 | 37877 ft | 490 kts | 80° |
| 2026-05-04 01:57 | 40.09400 | -101.76941 | 38060 ft | 491 kts | 80° |
| 2026-05-04 01:58 | 40.09835 | -101.72515 | 38188 ft | 493 kts | 80° |
| 2026-05-04 01:58 | 40.10270 | -101.68064 | 38299 ft | 495 kts | 80° |
| 2026-05-04 01:58 | 40.10704 | -101.63609 | 38484 ft | 494 kts | 80° |
| 2026-05-04 01:58 | 40.11135 | -101.59158 | 38705 ft | 493 kts | 80° |
| 2026-05-04 01:59 | 40.11564 | -101.54719 | 38859 ft | 493 kts | 80° |
| 2026-05-04 01:59 | 40.11993 | -101.50266 | 38874 ft | 496 kts | 80° |
| 2026-05-04 01:59 | 40.12849 | -101.41312 | 38881 ft | 496 kts | 80° |
| 2026-05-04 02:00 | 40.13563 | -101.32368 | 38883 ft | 495 kts | 84° |
| 2026-05-04 02:00 | 40.13784 | -101.23385 | 38886 ft | 494 kts | 86° |
| 2026-05-04 02:01 | 40.13914 | -101.14414 | 38892 ft | 493 kts | 86° |
| 2026-05-04 02:01 | 40.14097 | -101.05470 | 38884 ft | 492 kts | 86° |
| 2026-05-04 02:02 | 40.14317 | -100.96531 | 38889 ft | 492 kts | 85° |
| 2026-05-04 02:02 | 40.14544 | -100.87585 | 38877 ft | 493 kts | 85° |
| 2026-05-04 02:03 | 40.14760 | -100.78621 | 38867 ft | 494 kts | 86° |
| 2026-05-04 02:03 | 40.14970 | -100.69647 | 38869 ft | 495 kts | 86° |
| 2026-05-04 02:04 | 40.15174 | -100.60642 | 38866 ft | 496 kts | 86° |
| 2026-05-04 02:04 | 40.15372 | -100.51608 | 38871 ft | 498 kts | 86° |
| 2026-05-04 02:05 | 40.15560 | -100.42543 | 38861 ft | 500 kts | 86° |
| 2026-05-04 02:05 | 40.15743 | -100.33447 | 38852 ft | 501 kts | 86° |
| 2026-05-04 02:06 | 40.15920 | -100.24347 | 38849 ft | 501 kts | 86° |
| 2026-05-04 02:06 | 40.16087 | -100.15241 | 38840 ft | 501 kts | 87° |
| 2026-05-04 02:07 | 40.16248 | -100.06132 | 38839 ft | 501 kts | 87° |
| 2026-05-04 02:07 | 40.16403 | -99.97029 | 38841 ft | 500 kts | 87° |
| 2026-05-04 02:08 | 40.16552 | -99.87954 | 38846 ft | 499 kts | 87° |
| 2026-05-04 02:08 | 40.16689 | -99.78954 | 38852 ft | 498 kts | 87° |
| 2026-05-04 02:09 | 40.16820 | -99.69903 | 38852 ft | 498 kts | 87° |
| 2026-05-04 02:09 | 40.16945 | -99.60861 | 38851 ft | 497 kts | 87° |
| 2026-05-04 02:10 | 40.17065 | -99.51829 | 38850 ft | 497 kts | 87° |
| 2026-05-04 02:10 | 40.17177 | -99.42795 | 38858 ft | 496 kts | 87° |
| 2026-05-04 02:11 | 40.17280 | -99.33778 | 38856 ft | 496 kts | 87° |
| 2026-05-04 02:11 | 40.17376 | -99.24755 | 38865 ft | 497 kts | 87° |
| 2026-05-04 02:12 | 40.17467 | -99.15726 | 38864 ft | 497 kts | 87° |
| 2026-05-04 02:12 | 40.17551 | -99.06683 | 38858 ft | 498 kts | 87° |
| 2026-05-04 02:13 | 40.17628 | -98.97624 | 38862 ft | 498 kts | 86° |
| 2026-05-04 02:13 | 40.17696 | -98.88555 | 38862 ft | 499 kts | 86° |
| 2026-05-04 02:14 | 40.17756 | -98.79467 | 38858 ft | 500 kts | 87° |
| 2026-05-04 02:14 | 40.17810 | -98.70363 | 38865 ft | 501 kts | 87° |
| 2026-05-04 02:15 | 40.17860 | -98.61243 | 38865 ft | 502 kts | 87° |
| 2026-05-04 02:15 | 40.17901 | -98.52109 | 38858 ft | 503 kts | 86° |
| 2026-05-04 02:16 | 40.17937 | -98.42969 | 38857 ft | 503 kts | 86° |
| 2026-05-04 02:16 | 40.17963 | -98.33823 | 38867 ft | 503 kts | 87° |
| 2026-05-04 02:17 | 40.17976 | -98.24666 | 38858 ft | 504 kts | 87° |
| 2026-05-04 02:17 | 40.17989 | -98.15518 | 38865 ft | 503 kts | 87° |
| 2026-05-04 02:18 | 40.17999 | -98.06366 | 38857 ft | 503 kts | 87° |
| 2026-05-04 02:18 | 40.17998 | -97.97270 | 38864 ft | 503 kts | 87° |
| 2026-05-04 02:19 | 40.17986 | -97.88116 | 38851 ft | 503 kts | 87° |
| 2026-05-04 02:19 | 40.17971 | -97.78972 | 38855 ft | 503 kts | 87° |
| 2026-05-04 02:20 | 40.17947 | -97.69820 | 38853 ft | 503 kts | 87° |
| 2026-05-04 02:20 | 40.17918 | -97.60663 | 38848 ft | 504 kts | 87° |
| 2026-05-04 02:21 | 40.17882 | -97.51510 | 38851 ft | 503 kts | 87° |
| 2026-05-04 02:21 | 40.17837 | -97.42367 | 38849 ft | 502 kts | 87° |
| 2026-05-04 02:22 | 40.17783 | -97.33246 | 38849 ft | 502 kts | 87° |
| 2026-05-04 02:22 | 40.17723 | -97.24128 | 38850 ft | 501 kts | 87° |
| 2026-05-04 02:23 | 40.17657 | -97.15024 | 38853 ft | 501 kts | 87° |
| 2026-05-04 02:23 | 40.17584 | -97.05924 | 38849 ft | 500 kts | 87° |
| 2026-05-04 02:24 | 40.17503 | -96.96822 | 38853 ft | 500 kts | 87° |
| 2026-05-04 02:24 | 40.17417 | -96.87726 | 38853 ft | 501 kts | 87° |
| 2026-05-04 02:25 | 40.17322 | -96.78627 | 38849 ft | 501 kts | 88° |
| 2026-05-04 02:25 | 40.17219 | -96.69511 | 38854 ft | 501 kts | 87° |
| 2026-05-04 02:26 | 40.17111 | -96.60390 | 38852 ft | 502 kts | 87° |
| 2026-05-04 02:26 | 40.16995 | -96.51250 | 38853 ft | 503 kts | 87° |
| 2026-05-04 02:27 | 40.16875 | -96.42095 | 38852 ft | 504 kts | 87° |
| 2026-05-04 02:27 | 40.16767 | -96.34468 | 38854 ft | 505 kts | 88° |
| 2026-05-04 02:28 | 40.16620 | -96.25288 | 38860 ft | 506 kts | 88° |
| 2026-05-04 02:28 | 40.16381 | -96.14599 | 38859 ft | 506 kts | 88° |
| 2026-05-04 02:29 | 40.16196 | -96.06882 | 38864 ft | 507 kts | 88° |
| 2026-05-04 02:29 | 40.15972 | -95.97668 | 38859 ft | 508 kts | 88° |
| 2026-05-04 02:30 | 40.15751 | -95.88438 | 38868 ft | 508 kts | 88° |
| 2026-05-04 02:30 | 40.15524 | -95.79215 | 38869 ft | 507 kts | 88° |
| 2026-05-04 02:31 | 40.15290 | -95.70000 | 38860 ft | 508 kts | 88° |
| 2026-05-04 02:31 | 40.15046 | -95.60773 | 38854 ft | 507 kts | 89° |
| 2026-05-04 02:32 | 40.14798 | -95.51570 | 38852 ft | 507 kts | 89° |
| 2026-05-04 02:32 | 40.14541 | -95.42424 | 38849 ft | 506 kts | 89° |
| 2026-05-04 02:33 | 40.14276 | -95.33249 | 38846 ft | 504 kts | 89° |
| 2026-05-04 02:33 | 40.14006 | -95.24106 | 38853 ft | 503 kts | 89° |
| 2026-05-04 02:34 | 40.13730 | -95.14987 | 38854 ft | 502 kts | 89° |
| 2026-05-04 02:34 | 40.13448 | -95.05886 | 38849 ft | 501 kts | 89° |
| 2026-05-04 02:35 | 40.13157 | -94.96797 | 38851 ft | 500 kts | 89° |
| 2026-05-04 02:35 | 40.12861 | -94.87726 | 38857 ft | 499 kts | 89° |
| 2026-05-04 02:36 | 40.12558 | -94.78664 | 38850 ft | 499 kts | 89° |
| 2026-05-04 02:36 | 40.12248 | -94.69610 | 38855 ft | 499 kts | 89° |
| 2026-05-04 02:37 | 40.11931 | -94.60562 | 38853 ft | 499 kts | 89° |
| 2026-05-04 02:37 | 40.11609 | -94.51506 | 38847 ft | 499 kts | 89° |
| 2026-05-04 02:38 | 40.11278 | -94.42449 | 38856 ft | 499 kts | 89° |
| 2026-05-04 02:38 | 40.10939 | -94.33388 | 38855 ft | 499 kts | 89° |
| 2026-05-04 02:39 | 40.10593 | -94.24317 | 38863 ft | 500 kts | 89° |
| 2026-05-04 02:39 | 40.10240 | -94.15237 | 38858 ft | 501 kts | 89° |
| 2026-05-04 02:40 | 40.09878 | -94.06147 | 38867 ft | 501 kts | 89° |
| 2026-05-04 02:40 | 40.09507 | -93.97051 | 38867 ft | 501 kts | 89° |
| 2026-05-04 02:41 | 40.09134 | -93.87955 | 38876 ft | 502 kts | 89° |
| 2026-05-04 02:41 | 40.08752 | -93.78844 | 38872 ft | 503 kts | 89° |
| 2026-05-04 02:42 | 40.08363 | -93.69731 | 38876 ft | 503 kts | 90° |
| 2026-05-04 02:42 | 40.07964 | -93.60612 | 38865 ft | 503 kts | 90° |
| 2026-05-04 02:43 | 40.07560 | -93.51503 | 38871 ft | 502 kts | 90° |
| 2026-05-04 02:43 | 40.07149 | -93.42467 | 38868 ft | 502 kts | 90° |
| 2026-05-04 02:44 | 40.06730 | -93.33382 | 38873 ft | 501 kts | 90° |
| 2026-05-04 02:44 | 40.06305 | -93.24308 | 38867 ft | 500 kts | 90° |
| 2026-05-04 02:45 | 40.05875 | -93.15260 | 38881 ft | 499 kts | 90° |
| 2026-05-04 02:45 | 40.05439 | -93.06223 | 38884 ft | 499 kts | 90° |
| 2026-05-04 02:46 | 40.04995 | -92.97188 | 38881 ft | 498 kts | 90° |
| 2026-05-04 02:46 | 40.04545 | -92.88172 | 38877 ft | 498 kts | 91° |
| 2026-05-04 02:47 | 40.04086 | -92.79168 | 38889 ft | 497 kts | 91° |
| 2026-05-04 02:47 | 40.03624 | -92.70171 | 38888 ft | 496 kts | 91° |
| 2026-05-04 02:48 | 40.03155 | -92.61186 | 38884 ft | 496 kts | 91° |
| 2026-05-04 02:48 | 40.02680 | -92.52218 | 38885 ft | 495 kts | 91° |
| 2026-05-04 02:49 | 40.02199 | -92.43307 | 38895 ft | 496 kts | 91° |
| 2026-05-04 02:49 | 40.01716 | -92.34309 | 38881 ft | 497 kts | 91° |
| 2026-05-04 02:50 | 40.01214 | -92.25315 | 38893 ft | 497 kts | 91° |
| 2026-05-04 02:50 | 40.00704 | -92.16307 | 38895 ft | 499 kts | 91° |
| 2026-05-04 02:51 | 40.00187 | -92.07283 | 38888 ft | 499 kts | 91° |
| 2026-05-04 02:51 | 39.99667 | -91.98241 | 38883 ft | 501 kts | 91° |
| 2026-05-04 02:52 | 39.99141 | -91.89183 | 38880 ft | 501 kts | 91° |
| 2026-05-04 02:52 | 39.98599 | -91.80119 | 38881 ft | 501 kts | 92° |
| 2026-05-04 02:53 | 39.98051 | -91.71066 | 38875 ft | 501 kts | 92° |
| 2026-05-04 02:53 | 39.97501 | -91.62024 | 38878 ft | 500 kts | 92° |
| 2026-05-04 02:54 | 39.96948 | -91.52982 | 38878 ft | 500 kts | 92° |
| 2026-05-04 02:54 | 39.96384 | -91.43960 | 38877 ft | 499 kts | 92° |
| 2026-05-04 02:55 | 39.95528 | -91.30490 | 38874 ft | 499 kts | 92° |
| 2026-05-04 02:56 | 39.94946 | -91.21421 | 38861 ft | 499 kts | 92° |
| 2026-05-04 02:56 | 39.94361 | -91.12420 | 38875 ft | 498 kts | 92° |
| 2026-05-04 02:57 | 39.93771 | -91.03486 | 38873 ft | 497 kts | 92° |
| 2026-05-04 02:57 | 39.93173 | -90.94510 | 38875 ft | 497 kts | 92° |
| 2026-05-04 02:58 | 39.92568 | -90.85543 | 38879 ft | 497 kts | 93° |
| 2026-05-04 02:58 | 39.91955 | -90.76582 | 38878 ft | 497 kts | 93° |
| 2026-05-04 02:59 | 39.91335 | -90.67623 | 38882 ft | 497 kts | 93° |
| 2026-05-04 02:59 | 39.90706 | -90.58644 | 38880 ft | 498 kts | 93° |
| 2026-05-04 03:00 | 39.90073 | -90.49668 | 38887 ft | 497 kts | 93° |
| 2026-05-04 03:00 | 39.89434 | -90.40703 | 38886 ft | 497 kts | 93° |
| 2026-05-04 03:01 | 39.88787 | -90.31739 | 38891 ft | 497 kts | 93° |
| 2026-05-04 03:01 | 39.88135 | -90.22782 | 38887 ft | 497 kts | 93° |
| 2026-05-04 03:02 | 39.87479 | -90.13820 | 38892 ft | 497 kts | 94° |
| 2026-05-04 03:02 | 39.86805 | -90.04867 | 38889 ft | 497 kts | 94° |
| 2026-05-04 03:03 | 39.86133 | -89.95976 | 38894 ft | 497 kts | 94° |
| 2026-05-04 03:03 | 39.85455 | -89.87027 | 38894 ft | 497 kts | 94° |
| 2026-05-04 03:04 | 39.84771 | -89.78092 | 38889 ft | 496 kts | 94° |
| 2026-05-04 03:04 | 39.84080 | -89.69169 | 38895 ft | 496 kts | 94° |
| 2026-05-04 03:05 | 39.83779 | -89.60230 | 38888 ft | 494 kts | 87° |
| 2026-05-04 03:05 | 39.83931 | -89.51309 | 38895 ft | 493 kts | 86° |
| 2026-05-04 03:06 | 39.84081 | -89.42384 | 38888 ft | 494 kts | 86° |
| 2026-05-04 03:06 | 39.84152 | -89.33436 | 38890 ft | 494 kts | 87° |
| 2026-05-04 03:07 | 39.84180 | -89.24491 | 38898 ft | 495 kts | 88° |
| 2026-05-04 03:07 | 39.84195 | -89.15528 | 38897 ft | 496 kts | 88° |
| 2026-05-04 03:07 | 39.84203 | -89.11018 | 38583 ft | 502 kts | 88° |
| 2026-05-04 03:08 | 39.84209 | -89.06518 | 38638 ft | 493 kts | 88° |
| 2026-05-04 03:08 | 39.84213 | -89.02059 | 38519 ft | 493 kts | 88° |
| 2026-05-04 03:08 | 39.84218 | -88.97577 | 38268 ft | 498 kts | 88° |
| 2026-05-04 03:08 | 39.84221 | -88.93062 | 38026 ft | 498 kts | 88° |
| 2026-05-04 03:09 | 39.84222 | -88.88560 | 37437 ft | 499 kts | 88° |
| 2026-05-04 03:09 | 39.84219 | -88.84052 | 36789 ft | 498 kts | 87° |
| 2026-05-04 03:09 | 39.84215 | -88.79544 | 36132 ft | 498 kts | 87° |
| 2026-05-04 03:09 | 39.84210 | -88.75038 | 35417 ft | 499 kts | 87° |
| 2026-05-04 03:10 | 39.84204 | -88.71010 | 34724 ft | 501 kts | 87° |
| 2026-05-04 03:10 | 39.84197 | -88.66412 | 33932 ft | 503 kts | 86° |
| 2026-05-04 03:10 | 39.84189 | -88.61915 | 33140 ft | 505 kts | 86° |
| 2026-05-04 03:10 | 39.84178 | -88.57336 | 32290 ft | 507 kts | 87° |
| 2026-05-04 03:11 | 39.84166 | -88.52746 | 31583 ft | 506 kts | 87° |
| 2026-05-04 03:11 | 39.84150 | -88.48188 | 31003 ft | 501 kts | 88° |
| 2026-05-04 03:11 | 39.84133 | -88.43665 | 30402 ft | 498 kts | 88° |
| 2026-05-04 03:11 | 39.84114 | -88.39177 | 29811 ft | 494 kts | 88° |
| 2026-05-04 03:12 | 39.84095 | -88.34731 | 29229 ft | 490 kts | 88° |
| 2026-05-04 03:12 | 39.84074 | -88.30312 | 28647 ft | 486 kts | 88° |
| 2026-05-04 03:12 | 39.84051 | -88.25939 | 28073 ft | 482 kts | 88° |
| 2026-05-04 03:12 | 39.84044 | -88.21597 | 27500 ft | 478 kts | 88° |
| 2026-05-04 03:13 | 39.84059 | -88.17289 | 26930 ft | 474 kts | 87° |
| 2026-05-04 03:13 | 39.84075 | -88.13033 | 26361 ft | 466 kts | 87° |
| 2026-05-04 03:13 | 39.84087 | -88.08847 | 25817 ft | 460 kts | 87° |
| 2026-05-04 03:13 | 39.84092 | -88.04705 | 25350 ft | 456 kts | 87° |
| 2026-05-04 03:14 | 39.84093 | -88.00600 | 24884 ft | 452 kts | 87° |
| 2026-05-04 03:14 | 39.84095 | -87.96515 | 24419 ft | 450 kts | 87° |
| 2026-05-04 03:14 | 39.84096 | -87.92449 | 23950 ft | 449 kts | 87° |
| 2026-05-04 03:14 | 39.84098 | -87.88398 | 23493 ft | 448 kts | 87° |
| 2026-05-04 03:15 | 39.84098 | -87.84345 | 23038 ft | 447 kts | 87° |
| 2026-05-04 03:15 | 39.84096 | -87.80303 | 22563 ft | 445 kts | 87° |
| 2026-05-04 03:15 | 39.84093 | -87.76286 | 22097 ft | 443 kts | 87° |
| 2026-05-04 03:15 | 39.84089 | -87.72289 | 21640 ft | 440 kts | 88° |
| 2026-05-04 03:16 | 39.84086 | -87.69660 | 21336 ft | 438 kts | 88° |
| 2026-05-04 03:16 | 39.84081 | -87.65722 | 20884 ft | 433 kts | 88° |
| 2026-05-04 03:16 | 39.84074 | -87.61824 | 20432 ft | 428 kts | 88° |
| 2026-05-04 03:16 | 39.84064 | -87.57972 | 19990 ft | 423 kts | 88° |
| 2026-05-04 03:17 | 39.84059 | -87.54170 | 19555 ft | 418 kts | 87° |
| 2026-05-04 03:17 | 39.84086 | -87.50406 | 19121 ft | 413 kts | 86° |
| 2026-05-04 03:17 | 39.84128 | -87.46686 | 18694 ft | 408 kts | 86° |
| 2026-05-04 03:17 | 39.84173 | -87.43012 | 18271 ft | 404 kts | 86° |
| 2026-05-04 03:18 | 39.84218 | -87.39380 | 17855 ft | 400 kts | 86° |
| 2026-05-04 03:18 | 39.84257 | -87.35788 | 17477 ft | 395 kts | 86° |
| 2026-05-04 03:18 | 39.84293 | -87.32230 | 17082 ft | 393 kts | 86° |
| 2026-05-04 03:18 | 39.84329 | -87.28677 | 16679 ft | 392 kts | 87° |
| 2026-05-04 03:19 | 39.84363 | -87.25132 | 16276 ft | 392 kts | 87° |
| 2026-05-04 03:19 | 39.84394 | -87.21625 | 16200 ft | 384 kts | 87° |
| 2026-05-04 03:19 | 39.84424 | -87.18135 | 16179 ft | 387 kts | 87° |
| 2026-05-04 03:19 | 39.84450 | -87.14646 | 15945 ft | 384 kts | 87° |
| 2026-05-04 03:20 | 39.84475 | -87.11193 | 15428 ft | 379 kts | 87° |
| 2026-05-04 03:20 | 39.84502 | -87.07747 | 14584 ft | 382 kts | 87° |
| 2026-05-04 03:20 | 39.84529 | -87.04284 | 13941 ft | 383 kts | 87° |
| 2026-05-04 03:20 | 39.84555 | -87.00835 | 13493 ft | 380 kts | 88° |
| 2026-05-04 03:21 | 39.84579 | -86.97421 | 13089 ft | 375 kts | 88° |
| 2026-05-04 03:21 | 39.84602 | -86.94046 | 12694 ft | 371 kts | 88° |
| 2026-05-04 03:21 | 39.84623 | -86.90702 | 12305 ft | 368 kts | 88° |
| 2026-05-04 03:21 | 39.84643 | -86.87382 | 11931 ft | 365 kts | 88° |
| 2026-05-04 03:22 | 39.84661 | -86.84092 | 11553 ft | 362 kts | 88° |
| 2026-05-04 03:22 | 39.84677 | -86.80821 | 11177 ft | 360 kts | 88° |
| 2026-05-04 03:22 | 39.84693 | -86.77589 | 10807 ft | 356 kts | 88° |
| 2026-05-04 03:22 | 39.84708 | -86.74376 | 10443 ft | 353 kts | 89° |
| 2026-05-04 03:23 | 39.84719 | -86.71208 | 10077 ft | 349 kts | 89° |
| 2026-05-04 03:23 | 39.84511 | -86.68095 | 9907 ft | 338 kts | 101° |
| 2026-05-04 03:23 | 39.84002 | -86.65180 | 9902 ft | 324 kts | 105° |
| 2026-05-04 03:23 | 39.83456 | -86.62390 | 9778 ft | 314 kts | 105° |
| 2026-05-04 03:24 | 39.82981 | -86.59630 | 9457 ft | 313 kts | 95° |
| 2026-05-04 03:24 | 39.83113 | -86.56823 | 9079 ft | 311 kts | 78° |
| 2026-05-04 03:24 | 39.83527 | -86.54058 | 8695 ft | 312 kts | 76° |
| 2026-05-04 03:24 | 39.83981 | -86.51296 | 8302 ft | 313 kts | 76° |
| 2026-05-04 03:25 | 39.84448 | -86.48562 | 7922 ft | 314 kts | 75° |
| 2026-05-04 03:25 | 39.84945 | -86.45751 | 7513 ft | 315 kts | 76° |
| 2026-05-04 03:25 | 39.85454 | -86.42976 | 7117 ft | 316 kts | 76° |
| 2026-05-04 03:25 | 39.85976 | -86.40192 | 6712 ft | 318 kts | 75° |
| 2026-05-04 03:26 | 39.86504 | -86.37439 | 6330 ft | 318 kts | 76° |
| 2026-05-04 03:26 | 39.87059 | -86.34636 | 5911 ft | 313 kts | 75° |
| 2026-05-04 03:26 | 39.87608 | -86.31926 | 5513 ft | 308 kts | 76° |
| 2026-05-04 03:26 | 39.88172 | -86.29263 | 5108 ft | 302 kts | 75° |
| 2026-05-04 03:27 | 39.88735 | -86.26685 | 4710 ft | 297 kts | 75° |
| 2026-05-04 03:27 | 39.89309 | -86.24129 | 4309 ft | 292 kts | 76° |
| 2026-05-04 03:27 | 39.89885 | -86.21601 | 3921 ft | 292 kts | 79° |
| 2026-05-04 03:27 | 39.89943 | -86.19014 | 3497 ft | 281 kts | 107° |
| 2026-05-04 03:28 | 39.89158 | -86.16794 | 3118 ft | 264 kts | 131° |
| 2026-05-04 03:28 | 39.88061 | -86.14972 | 3018 ft | 246 kts | 134° |
| 2026-05-04 03:28 | 39.86953 | -86.13315 | 2993 ft | 239 kts | 144° |
| 2026-05-04 03:28 | 39.85469 | -86.12527 | 3023 ft | 232 kts | 182° |
| 2026-05-04 03:29 | 39.84007 | -86.13191 | 3001 ft | 220 kts | 221° |
| 2026-05-04 03:29 | 39.83230 | -86.14769 | 2998 ft | 196 kts | 238° |
| 2026-05-04 03:29 | 39.82543 | -86.16154 | 2978 ft | 170 kts | 230° |
| 2026-05-04 03:29 | 39.81849 | -86.17282 | 2969 ft | 149 kts | 227° |
| 2026-05-04 03:30 | 39.81202 | -86.18240 | 2976 ft | 137 kts | 225° |
| 2026-05-04 03:30 | 39.80542 | -86.19164 | 2893 ft | 147 kts | 223° |
| 2026-05-04 03:30 | 39.79813 | -86.20144 | 2732 ft | 150 kts | 224° |
| 2026-05-04 03:30 | 39.79116 | -86.21100 | 2561 ft | 139 kts | 225° |
| 2026-05-04 03:31 | 39.78458 | -86.21999 | 2349 ft | 137 kts | 224° |
| 2026-05-04 03:31 | 39.77798 | -86.22880 | 2167 ft | 138 kts | 224° |
| 2026-05-04 03:31 | 39.77108 | -86.23788 | 1984 ft | 140 kts | 224° |
| 2026-05-04 03:31 | 39.76423 | -86.24680 | 1803 ft | 138 kts | 223° |
| 2026-05-04 03:32 | 39.75752 | -86.25548 | 1624 ft | 137 kts | 223° |
| 2026-05-04 03:32 | 39.75073 | -86.26422 | 1441 ft | 138 kts | 224° |
| 2026-05-04 03:32 | 39.74393 | -86.27314 | 1260 ft | 140 kts | 224° |
| 2026-05-04 03:32 | 39.73696 | -86.28192 | 1097 ft | 139 kts | 224° |
| 2026-05-04 03:33 | 39.73009 | -86.29070 | 889 ft | 138 kts | 223° |
| 2026-05-04 03:33 | 39.72346 | -86.29906 | 779 ft | 123 kts | 224° |
| 2026-05-04 03:33 | 39.71885 | -86.30488 | 776 ft | 62 kts | 224° |
| 2026-05-04 03:33 | 39.71639 | -86.30803 | 778 ft | 49 kts | 225° |
| 2026-05-04 03:34 | 39.71429 | -86.31006 | 779 ft | 25 kts | 192° |
| 2026-05-04 03:34 | 39.71313 | -86.30933 | 778 ft | 17 kts | 77° |
| 2026-05-04 03:34 | 39.71390 | -86.30823 | 780 ft | 17 kts | 42° |
| 2026-05-04 03:34 | 39.71472 | -86.30722 | 779 ft | 16 kts | 44° |
| 2026-05-04 03:35 | 39.71550 | -86.30624 | 778 ft | 17 kts | 43° |
| 2026-05-04 03:35 | 39.71656 | -86.30489 | 776 ft | 23 kts | 44° |
| 2026-05-04 03:35 | 39.71770 | -86.30344 | 776 ft | 23 kts | 44° |
| 2026-05-04 03:35 | 39.71880 | -86.30200 | 776 ft | 22 kts | 44° |
| 2026-05-04 03:36 | 39.71933 | -86.30048 | 779 ft | 20 kts | 127° |
| 2026-05-04 03:36 | 39.71860 | -86.29914 | 783 ft | 16 kts | 82° |
| 2026-05-04 03:36 | 39.71936 | -86.29820 | 784 ft | 15 kts | 38° |
| 2026-05-04 03:36 | 39.72014 | -86.29733 | 784 ft | 14 kts | 56° |
| 2026-05-04 03:37 | 39.71985 | -86.29619 | 785 ft | 14 kts | 130° |
| 2026-05-04 03:37 | 39.71925 | -86.29524 | 786 ft | 13 kts | 129° |
| 2026-05-04 03:37 | 39.71868 | -86.29433 | 786 ft | 13 kts | 130° |
| 2026-05-04 03:37 | 39.71810 | -86.29347 | 786 ft | 13 kts | 135° |
| 2026-05-04 03:38 | 39.71744 | -86.29276 | 785 ft | 12 kts | 141° |
| 2026-05-04 03:38 | 39.71688 | -86.29287 | 785 ft | 8 kts | 216° |
| 2026-05-04 03:38 | 39.71652 | -86.29324 | 785 ft | 0 kts | 218° |
| 2026-05-04 03:38 | 39.71650 | -86.29326 | 785 ft | 0 kts | 219° |
| 2026-05-04 03:39 | 39.71648 | -86.29328 | 785 ft | 0 kts | 219° |
| 2026-05-04 03:39 | 39.71646 | -86.29329 | 785 ft | 0 kts | 219° |
| 2026-05-04 03:39 | 39.71645 | -86.29331 | 785 ft | 0 kts | 219° |
| 2026-05-04 03:39 | 39.71644 | -86.29332 | 785 ft | 0 kts | 219° |